createdAt,value
2022-10-10T00:01:13.924Z,3.63
2022-10-10T00:03:41.195Z,4.07
2022-10-10T00:06:08.812Z,5.40
2022-10-10T00:08:35.843Z,6.50
2022-10-10T00:11:03.180Z,9.67
2022-10-10T00:13:29.950Z,8.40
2022-10-10T00:15:56.858Z,7.50
2022-10-10T00:18:23.750Z,6.20
2022-10-10T00:20:52.525Z,5.60
2022-10-10T00:23:20.066Z,5.00
2022-10-10T00:25:47.543Z,4.70
2022-10-10T00:28:14.587Z,4.47
2022-10-10T00:30:41.704Z,4.43
2022-10-10T00:33:08.933Z,4.10
2022-10-10T00:35:35.847Z,3.97
2022-10-10T00:38:03.148Z,4.23
2022-10-10T00:40:30.461Z,3.97
2022-10-10T00:42:57.674Z,4.00
2022-10-10T00:45:35.987Z,3.70
2022-10-10T00:48:13.843Z,3.60
2022-10-10T00:50:48.895Z,3.90
2022-10-10T00:53:18.944Z,3.70
2022-10-10T00:55:46.442Z,3.70
2022-10-10T00:58:14.485Z,4.20
2022-10-10T01:00:41.314Z,4.00
2022-10-10T01:03:08.411Z,4.37
2022-10-10T01:05:35.664Z,4.30
2022-10-10T01:08:04.073Z,6.00
2022-10-10T01:10:35.673Z,6.53
2022-10-10T01:13:20.114Z,7.77
2022-10-10T01:15:46.832Z,7.57
2022-10-10T01:18:35.240Z,8.63
2022-10-10T01:21:20.934Z,9.20
2022-10-10T01:24:25.962Z,9.33
2022-10-10T01:27:28.805Z,8.90
2022-10-10T01:30:10.236Z,9.30
2022-10-10T01:32:45.443Z,9.37
2022-10-10T01:35:30.580Z,9.47
2022-10-10T01:38:28.163Z,9.40
2022-10-10T01:41:19.923Z,9.47
2022-10-10T01:43:47.215Z,8.90
2022-10-10T01:46:16.928Z,9.13
2022-10-10T01:48:47.156Z,9.13
2022-10-10T01:51:38.962Z,8.90
2022-10-10T01:54:43.588Z,9.10
2022-10-10T01:57:32.415Z,8.80
2022-10-10T02:00:19.428Z,9.20
2022-10-10T02:03:08.162Z,9.83
2022-10-10T02:05:46.424Z,8.80
2022-10-10T02:08:47.273Z,9.30
2022-10-10T02:11:14.392Z,8.43
2022-10-10T02:13:52.978Z,8.80
2022-10-10T02:16:27.731Z,8.87
2022-10-10T02:18:57.148Z,9.83
2022-10-10T02:21:25.685Z,9.43
2022-10-10T02:23:56.126Z,9.57
2022-10-10T02:26:24.988Z,8.97
2022-10-10T02:29:10.692Z,9.00
2022-10-10T02:31:40.599Z,10.13
2022-10-10T02:34:19.230Z,9.33
2022-10-10T02:36:54.211Z,8.80
2022-10-10T02:39:24.708Z,8.53
2022-10-10T02:41:52.736Z,8.83
2022-10-10T02:44:20.902Z,8.53
2022-10-10T02:46:47.897Z,8.30
2022-10-10T02:49:14.840Z,8.17
2022-10-10T02:51:41.680Z,8.73
2022-10-10T02:54:09.367Z,9.07
2022-10-10T02:56:36.231Z,9.10
2022-10-10T02:59:03.118Z,8.70
2022-10-10T03:01:30.079Z,8.53
2022-10-10T03:03:56.981Z,9.17
2022-10-10T03:06:24.118Z,8.67
2022-10-10T03:08:51.113Z,8.23
2022-10-10T03:11:17.967Z,8.27
2022-10-10T03:13:44.838Z,8.53
2022-10-10T03:16:11.899Z,9.30
2022-10-10T03:18:38.768Z,9.63
2022-10-10T03:21:05.982Z,8.83
2022-10-10T03:23:34.459Z,8.37
2022-10-10T03:26:02.090Z,8.33
2022-10-10T03:28:28.955Z,9.37
2022-10-10T03:30:55.986Z,8.50
2022-10-10T03:33:22.969Z,8.90
2022-10-10T03:35:50.005Z,9.00
2022-10-10T03:38:16.980Z,8.00
2022-10-10T03:40:44.504Z,8.03
2022-10-10T03:43:13.379Z,7.87
2022-10-10T03:45:43.880Z,7.83
2022-10-10T03:48:11.107Z,7.50
2022-10-10T03:50:38.304Z,8.73
2022-10-10T03:53:05.667Z,8.20
2022-10-10T03:55:32.640Z,7.40
2022-10-10T03:57:59.531Z,8.13
2022-10-10T04:00:26.805Z,7.07
2022-10-10T04:02:53.855Z,6.90
2022-10-10T04:05:21.552Z,8.07
2022-10-10T04:07:48.397Z,7.80
2022-10-10T04:10:15.519Z,7.43
2022-10-10T04:12:42.400Z,7.47
2022-10-10T04:15:09.842Z,6.63
2022-10-10T04:17:36.720Z,7.10
2022-10-10T04:20:03.781Z,7.57
2022-10-10T04:22:30.701Z,7.67
2022-10-10T04:24:57.569Z,7.73
2022-10-10T04:27:24.450Z,7.00
2022-10-10T04:29:51.420Z,6.87
2022-10-10T04:32:18.314Z,6.83
2022-10-10T04:34:45.139Z,6.50
2022-10-10T04:37:12.069Z,6.60
2022-10-10T04:39:38.894Z,6.60
2022-10-10T04:42:05.867Z,6.23
2022-10-10T04:44:32.817Z,6.43
2022-10-10T04:46:59.625Z,6.40
2022-10-10T04:49:26.635Z,6.70
2022-10-10T04:51:53.499Z,6.57
2022-10-10T04:54:20.664Z,6.53
2022-10-10T04:56:47.497Z,6.13
2022-10-10T04:59:14.397Z,6.70
2022-10-10T05:01:41.258Z,5.80
2022-10-10T05:04:08.221Z,5.47
2022-10-10T05:06:35.470Z,5.23
2022-10-10T05:09:02.401Z,6.27
2022-10-10T05:11:29.276Z,5.93
2022-10-10T05:13:56.117Z,6.00
2022-10-10T05:16:22.942Z,6.37
2022-10-10T05:18:49.757Z,5.60
2022-10-10T05:21:16.553Z,5.53
2022-10-10T05:23:43.388Z,5.70
2022-10-10T05:26:10.411Z,5.47
2022-10-10T05:28:38.820Z,6.00
2022-10-10T05:31:06.120Z,5.70
2022-10-10T05:33:34.489Z,5.53
2022-10-10T05:36:10.715Z,5.43
2022-10-10T05:38:38.615Z,5.00
2022-10-10T05:41:06.500Z,5.27
2022-10-10T05:43:33.455Z,4.80
2022-10-10T05:46:00.206Z,5.70
2022-10-10T05:48:27.250Z,4.80
2022-10-10T05:50:59.389Z,4.97
2022-10-10T05:53:28.094Z,4.93
2022-10-10T05:55:54.965Z,5.23
2022-10-10T05:58:21.763Z,4.60
2022-10-10T06:00:49.066Z,4.70
2022-10-10T06:03:17.266Z,5.27
2022-10-10T06:05:50.603Z,4.97
2022-10-10T06:08:17.620Z,4.70
2022-10-10T06:10:46.737Z,4.87
2022-10-10T06:13:18.198Z,3.93
2022-10-10T06:15:51.383Z,4.57
2022-10-10T06:18:18.375Z,4.83
2022-10-10T06:20:45.224Z,4.30
2022-10-10T06:23:12.142Z,4.47
2022-10-10T06:25:40.994Z,4.70
2022-10-10T06:28:09.130Z,4.67
2022-10-10T06:30:40.477Z,4.70
2022-10-10T06:33:07.633Z,4.40
2022-10-10T06:35:40.660Z,4.90
2022-10-10T06:38:07.499Z,5.07
2022-10-10T06:40:34.370Z,5.03
2022-10-10T06:43:01.263Z,4.90
2022-10-10T06:45:28.064Z,5.00
2022-10-10T06:47:55.636Z,4.90
2022-10-10T06:50:22.677Z,5.37
2022-10-10T06:52:49.801Z,4.77
2022-10-10T06:55:16.873Z,5.50
2022-10-10T06:57:43.699Z,4.67
2022-10-10T07:00:12.262Z,5.87
2022-10-10T07:02:40.867Z,4.77
2022-10-10T07:05:12.158Z,5.00
2022-10-10T07:07:40.308Z,5.30
2022-10-10T07:10:09.961Z,5.37
2022-10-10T07:12:43.539Z,4.73
2022-10-10T07:15:11.819Z,6.30
2022-10-10T07:17:39.044Z,5.40
2022-10-10T07:20:06.571Z,5.97
2022-10-10T07:22:33.684Z,5.80
2022-10-10T07:25:00.515Z,5.30
2022-10-10T07:27:27.451Z,5.00
2022-10-10T07:29:54.394Z,5.37
2022-10-10T07:32:21.255Z,5.33
2022-10-10T07:34:48.073Z,5.60
2022-10-10T07:37:14.888Z,5.00
2022-10-10T07:39:41.767Z,4.67
2022-10-10T07:42:08.549Z,5.27
2022-10-10T07:44:35.343Z,5.20
2022-10-10T07:47:02.308Z,4.70
2022-10-10T07:49:29.203Z,4.10
2022-10-10T07:51:58.864Z,4.10
2022-10-10T07:54:27.586Z,4.40
2022-10-10T07:56:54.463Z,4.30
2022-10-10T07:59:21.677Z,4.13
2022-10-10T08:01:48.581Z,5.07
2022-10-10T08:04:15.554Z,4.90
2022-10-10T08:06:42.413Z,4.87
2022-10-10T08:09:09.429Z,4.50
2022-10-10T08:11:36.265Z,4.67
2022-10-10T08:14:03.380Z,5.37
2022-10-10T08:16:30.306Z,4.77
2022-10-10T08:18:57.292Z,5.27
2022-10-10T08:21:24.452Z,4.10
2022-10-10T08:23:51.369Z,4.27
2022-10-10T08:26:19.986Z,4.10
2022-10-10T08:28:48.618Z,4.40
2022-10-10T08:31:18.052Z,4.40
2022-10-10T08:33:46.124Z,4.00
2022-10-10T08:36:16.551Z,3.90
2022-10-10T08:38:44.004Z,4.20
2022-10-10T08:41:20.987Z,4.00
2022-10-10T08:43:54.536Z,3.83
2022-10-10T08:46:36.585Z,4.40
2022-10-10T08:49:16.447Z,3.90
2022-10-10T08:51:49.822Z,3.70
2022-10-10T08:54:18.269Z,4.03
2022-10-10T08:56:45.214Z,4.37
2022-10-10T08:59:20.809Z,4.40
2022-10-10T09:02:17.667Z,4.10
2022-10-10T09:04:37.062Z,4.23
2022-10-10T09:07:15.172Z,4.40
2022-10-10T09:10:07.545Z,3.93
2022-10-10T09:12:48.713Z,3.50
2022-10-10T09:15:20.253Z,3.70
2022-10-10T09:17:47.085Z,3.33
2022-10-10T09:20:32.447Z,3.93
2022-10-10T09:23:21.191Z,3.63
2022-10-10T09:26:03.662Z,3.50
2022-10-10T09:28:42.458Z,4.10
2022-10-10T09:31:23.603Z,4.03
2022-10-10T09:34:00.247Z,3.23
2022-10-10T09:36:34.134Z,3.90
2022-10-10T09:39:06.573Z,3.67
2022-10-10T09:41:47.504Z,3.90
2022-10-10T09:44:17.133Z,3.37
2022-10-10T09:46:43.933Z,3.20
2022-10-10T09:49:17.694Z,3.63
2022-10-10T09:51:49.283Z,3.63
2022-10-10T09:54:19.318Z,3.83
2022-10-10T09:56:53.550Z,4.77
2022-10-10T09:59:40.636Z,4.27
2022-10-10T10:02:23.165Z,3.97
2022-10-10T10:04:51.144Z,4.20
2022-10-10T10:07:18.324Z,3.73
2022-10-10T10:09:54.750Z,4.20
2022-10-10T10:12:25.731Z,3.67
2022-10-10T10:14:58.606Z,4.63
2022-10-10T10:17:25.623Z,3.70
2022-10-10T10:19:52.684Z,3.57
2022-10-10T10:22:32.920Z,3.23
2022-10-10T10:25:20.884Z,3.27
2022-10-10T10:27:47.756Z,3.40
2022-10-10T10:30:25.771Z,3.80
2022-10-10T10:33:21.527Z,3.60
2022-10-10T10:36:14.980Z,3.73
2022-10-10T10:39:03.352Z,3.40
2022-10-10T10:41:38.737Z,3.33
2022-10-10T10:44:14.410Z,3.70
2022-10-10T10:47:09.040Z,3.53
2022-10-10T10:50:10.159Z,3.40
2022-10-10T10:53:01.470Z,3.33
2022-10-10T10:55:49.676Z,3.53
2022-10-10T10:59:16.127Z,3.27
2022-10-10T11:02:26.031Z,3.77
2022-10-10T11:05:23.425Z,4.23
2022-10-10T11:08:36.299Z,3.53
2022-10-10T11:11:35.793Z,3.30
2022-10-10T11:14:20.972Z,3.23
2022-10-10T11:17:11.677Z,3.10
2022-10-10T11:19:59.510Z,2.90
2022-10-10T11:22:39.335Z,3.10
2022-10-10T11:25:15.741Z,2.97
2022-10-10T11:27:57.972Z,3.30
2022-10-10T11:30:26.119Z,3.00
2022-10-10T11:33:04.891Z,2.67
2022-10-10T11:35:46.913Z,3.30
2022-10-10T11:38:35.878Z,2.87
2022-10-10T11:41:23.062Z,3.03
2022-10-10T11:44:21.772Z,2.90
2022-10-10T11:47:07.315Z,3.23
2022-10-10T11:49:49.125Z,3.00
2022-10-10T11:52:33.006Z,2.97
2022-10-10T11:55:06.914Z,2.90
2022-10-10T11:57:54.692Z,2.40
2022-10-10T12:00:22.187Z,2.90
2022-10-10T12:02:49.059Z,2.80
2022-10-10T12:05:18.924Z,2.90
2022-10-10T12:07:58.039Z,3.87
2022-10-10T12:10:32.142Z,5.13
2022-10-10T12:13:08.009Z,3.70
2022-10-10T12:15:42.626Z,3.17
2022-10-10T12:18:51.029Z,2.97
2022-10-10T12:21:26.725Z,3.50
2022-10-10T12:24:13.773Z,3.77
2022-10-10T12:26:52.733Z,3.50
2022-10-10T12:29:56.804Z,3.40
2022-10-10T12:32:24.580Z,3.47
2022-10-10T12:34:51.332Z,3.30
2022-10-10T12:37:30.166Z,3.83
2022-10-10T12:40:23.315Z,3.37
2022-10-10T12:42:55.908Z,3.70
2022-10-10T12:45:31.870Z,3.27
2022-10-10T12:48:06.669Z,3.40
2022-10-10T12:50:43.703Z,3.30
2022-10-10T12:53:13.471Z,3.13
2022-10-10T12:55:43.373Z,3.17
2022-10-10T12:58:26.574Z,3.10
2022-10-10T13:00:56.642Z,3.10
2022-10-10T13:03:33.660Z,3.73
2022-10-10T13:06:23.147Z,3.07
2022-10-10T13:08:51.983Z,2.80
2022-10-10T13:11:18.723Z,3.23
2022-10-10T13:13:51.060Z,3.20
2022-10-10T13:16:20.780Z,3.30
2022-10-10T13:18:56.287Z,2.97
2022-10-10T13:21:27.055Z,3.70
2022-10-10T13:24:03.358Z,3.67
2022-10-10T13:26:34.093Z,3.63
2022-10-10T13:29:25.059Z,3.63
2022-10-10T13:31:54.350Z,3.50
2022-10-10T13:34:29.771Z,3.67
2022-10-10T13:36:58.853Z,3.70
2022-10-10T13:39:27.183Z,3.40
2022-10-10T13:41:54.835Z,3.57
2022-10-10T13:44:46.175Z,3.70
2022-10-10T13:47:50.519Z,3.50
2022-10-10T13:50:20.328Z,4.53
2022-10-10T13:52:47.140Z,4.17
2022-10-10T13:55:34.319Z,3.90
2022-10-10T13:58:07.811Z,3.77
2022-10-10T14:00:35.663Z,4.00
2022-10-10T14:03:12.671Z,3.63
2022-10-10T14:05:44.033Z,6.00
2022-10-10T14:08:20.343Z,4.13
2022-10-10T14:11:08.570Z,3.50
2022-10-10T14:13:38.139Z,4.07
2022-10-10T14:16:22.801Z,3.90
2022-10-10T14:18:49.911Z,3.50
2022-10-10T14:21:16.776Z,3.57
2022-10-10T14:23:43.639Z,4.17
2022-10-10T14:26:15.027Z,3.60
2022-10-10T14:28:42.408Z,3.67
2022-10-10T14:31:09.490Z,4.10
2022-10-10T14:33:36.517Z,4.07
2022-10-10T14:36:03.968Z,4.00
2022-10-10T14:38:33.061Z,3.43
2022-10-10T14:41:00.822Z,3.83
2022-10-10T14:43:28.059Z,4.37
2022-10-10T14:45:55.173Z,4.17
2022-10-10T14:48:22.247Z,4.20
2022-10-10T14:50:51.151Z,3.63
2022-10-10T14:53:18.451Z,4.30
2022-10-10T14:55:45.998Z,4.00
2022-10-10T14:58:18.578Z,3.77
2022-10-10T15:00:45.886Z,3.67
2022-10-10T15:03:12.908Z,3.67
2022-10-10T15:05:40.630Z,3.43
2022-10-10T15:08:07.535Z,3.67
2022-10-10T15:10:35.371Z,3.80
2022-10-10T15:13:03.250Z,3.70
2022-10-10T15:15:30.571Z,3.70
2022-10-10T15:18:00.868Z,3.70
2022-10-10T15:20:31.545Z,3.47
2022-10-10T15:23:04.470Z,3.40
2022-10-10T15:25:33.894Z,3.30
2022-10-10T15:28:02.726Z,3.23
2022-10-10T15:30:29.690Z,3.40
2022-10-10T15:32:56.567Z,3.87
2022-10-10T15:35:24.965Z,3.50
2022-10-10T15:37:51.812Z,3.67
2022-10-10T15:40:23.094Z,3.80
2022-10-10T15:42:51.012Z,3.50
2022-10-10T15:45:36.936Z,3.53
2022-10-10T15:48:05.630Z,3.00
2022-10-10T15:50:34.407Z,3.40
2022-10-10T15:53:01.289Z,3.93
2022-10-10T15:55:28.107Z,3.63
2022-10-10T15:57:55.300Z,3.23
2022-10-10T16:00:22.209Z,3.33
2022-10-10T16:02:49.004Z,3.70
2022-10-10T16:05:15.916Z,3.50
2022-10-10T16:07:47.927Z,3.20
2022-10-10T16:10:15.714Z,4.00
2022-10-10T16:12:42.778Z,3.43
2022-10-10T16:15:09.969Z,3.40
2022-10-10T16:17:36.808Z,3.63
2022-10-10T16:20:04.352Z,3.63
2022-10-10T16:22:31.521Z,3.20
2022-10-10T16:27:46.060Z,3.43
2022-10-10T16:30:13.233Z,3.57
2022-10-10T16:32:42.547Z,3.97
2022-10-10T16:35:10.744Z,3.70
2022-10-10T16:37:38.195Z,3.83
2022-10-10T16:40:06.327Z,3.60
2022-10-10T16:42:33.670Z,3.50
2022-10-10T16:45:00.517Z,3.80
2022-10-10T16:47:27.363Z,3.40
2022-10-10T16:49:54.189Z,3.60
2022-10-10T16:52:21.079Z,3.83
2022-10-10T16:54:51.927Z,4.20
2022-10-10T16:57:19.484Z,3.73
2022-10-10T16:59:46.378Z,3.70
2022-10-10T17:02:13.510Z,3.63
2022-10-10T17:04:40.416Z,3.77
2022-10-10T17:07:07.273Z,4.50
2022-10-10T17:09:34.085Z,4.20
2022-10-10T17:12:01.070Z,3.87
2022-10-10T17:14:27.920Z,3.97
2022-10-10T17:19:41.634Z,4.13
2022-10-10T17:22:08.572Z,3.80
2022-10-10T17:24:35.953Z,4.37
2022-10-10T17:27:02.902Z,4.10
2022-10-10T17:29:29.762Z,4.30
2022-10-10T17:31:56.639Z,4.00
2022-10-10T17:34:23.597Z,4.73
2022-10-10T17:36:50.469Z,4.80
2022-10-10T17:39:17.253Z,4.93
2022-10-10T17:41:45.958Z,4.47
2022-10-10T17:44:13.465Z,4.40
2022-10-10T17:46:41.314Z,4.63
2022-10-10T17:49:11.221Z,4.90
2022-10-10T17:51:39.904Z,4.77
2022-10-10T17:54:07.338Z,4.13
2022-10-10T17:56:34.743Z,4.70
2022-10-10T17:59:02.424Z,4.17
2022-10-10T18:01:32.566Z,4.20
2022-10-10T18:03:59.723Z,4.80
2022-10-10T18:06:28.902Z,4.77
2022-10-10T18:08:56.607Z,4.63
2022-10-10T18:11:27.475Z,4.60
2022-10-10T18:14:00.233Z,4.50
2022-10-10T18:16:30.248Z,4.40
2022-10-10T18:18:58.490Z,4.93
2022-10-10T18:21:25.758Z,5.03
2022-10-10T18:23:53.654Z,6.67
2022-10-10T18:26:23.661Z,6.33
2022-10-10T18:28:54.022Z,5.13
2022-10-10T18:31:27.109Z,5.00
2022-10-10T18:33:54.598Z,4.87
2022-10-10T18:36:24.988Z,4.73
2022-10-10T18:38:52.226Z,4.70
2022-10-10T18:41:21.366Z,3.73
2022-10-10T18:43:49.138Z,4.63
2022-10-10T18:46:19.036Z,4.70
2022-10-10T18:48:50.287Z,4.63
2022-10-10T18:51:26.046Z,4.53
2022-10-10T18:53:57.043Z,4.60
2022-10-10T18:56:26.715Z,4.63
2022-10-10T18:58:57.108Z,4.50
2022-10-10T19:01:25.721Z,4.53
2022-10-10T19:03:54.268Z,4.57
2022-10-10T19:06:22.774Z,4.63
2022-10-10T19:08:51.892Z,4.47
2022-10-10T19:11:22.252Z,4.43
2022-10-10T19:13:49.429Z,4.67
2022-10-10T19:16:16.754Z,4.47
2022-10-10T19:18:43.661Z,4.67
2022-10-10T19:21:10.906Z,4.77
2022-10-10T19:23:38.238Z,4.70
2022-10-10T19:26:08.472Z,4.57
2022-10-10T19:28:36.981Z,4.00
2022-10-10T19:31:09.397Z,4.67
2022-10-10T19:33:36.937Z,4.77
2022-10-10T19:36:06.208Z,4.60
2022-10-10T19:38:38.869Z,4.63
2022-10-10T19:41:08.015Z,4.43
2022-10-10T19:43:35.123Z,4.63
2022-10-10T19:46:09.316Z,5.07
2022-10-10T19:48:37.079Z,4.60
2022-10-10T19:51:10.356Z,4.60
2022-10-10T19:53:38.683Z,4.83
2022-10-10T19:56:08.817Z,4.83
2022-10-10T19:58:37.060Z,4.93
2022-10-10T20:01:12.828Z,4.80
2022-10-10T20:03:40.167Z,4.77
2022-10-10T20:06:07.365Z,5.23
2022-10-10T20:08:35.134Z,4.70
2022-10-10T20:11:02.900Z,4.90
2022-10-10T20:13:29.881Z,4.60
2022-10-10T20:16:00.980Z,4.60
2022-10-10T20:18:28.238Z,5.03
2022-10-10T20:20:55.250Z,4.77
2022-10-10T20:23:24.258Z,4.80
2022-10-10T20:25:51.718Z,5.40
2022-10-10T20:28:19.996Z,5.30
2022-10-10T20:30:50.422Z,5.77
2022-10-10T20:33:19.178Z,6.50
2022-10-10T20:35:46.912Z,6.43
2022-10-10T20:38:14.244Z,5.77
2022-10-10T20:40:43.511Z,5.43
2022-10-10T20:43:14.219Z,5.20
2022-10-10T20:45:41.528Z,5.67
2022-10-10T20:48:09.990Z,5.63
2022-10-10T20:50:38.228Z,5.70
2022-10-10T20:53:06.405Z,6.27
2022-10-10T20:55:33.487Z,5.70
2022-10-10T20:58:00.484Z,5.67
2022-10-10T21:00:27.515Z,5.50
2022-10-10T21:02:57.420Z,5.90
2022-10-10T21:05:24.298Z,5.50
2022-10-10T21:07:51.225Z,5.80
2022-10-10T21:10:18.085Z,6.17
2022-10-10T21:12:45.059Z,5.53
2022-10-10T21:15:12.088Z,5.20
2022-10-10T21:17:39.106Z,5.70
2022-10-10T21:20:07.173Z,5.53
2022-10-10T21:22:34.242Z,5.60
2022-10-10T21:25:01.164Z,5.30
2022-10-10T21:27:28.060Z,5.50
2022-10-10T21:29:55.006Z,5.23
2022-10-10T21:32:21.909Z,5.33
2022-10-10T21:34:51.927Z,5.50
2022-10-10T21:37:21.257Z,6.43
2022-10-10T21:39:48.279Z,6.20
2022-10-10T21:42:15.191Z,5.77
2022-10-10T21:44:42.426Z,6.20
2022-10-10T21:47:09.292Z,6.10
2022-10-10T21:49:36.305Z,6.43
2022-10-10T21:52:03.283Z,5.83
2022-10-10T21:54:30.172Z,5.40
2022-10-10T21:56:57.104Z,4.77
2022-10-10T21:59:26.461Z,4.47
2022-10-10T22:01:53.411Z,4.70
2022-10-10T22:04:20.330Z,4.30
2022-10-10T22:06:47.177Z,3.70
2022-10-10T22:09:14.127Z,3.30
2022-10-10T22:11:41.254Z,3.23
2022-10-10T22:14:08.459Z,3.80
2022-10-10T22:16:35.873Z,3.00
2022-10-10T22:19:03.329Z,3.00
2022-10-10T22:21:32.097Z,2.87
2022-10-10T22:24:01.977Z,3.30
2022-10-10T22:26:29.835Z,2.50
2022-10-10T22:28:56.894Z,3.10
2022-10-10T22:31:23.980Z,3.00
2022-10-10T22:33:50.933Z,2.50
2022-10-10T22:36:17.869Z,2.60
2022-10-10T22:38:45.566Z,2.90
2022-10-10T22:41:13.464Z,2.67
2022-10-10T22:43:40.573Z,2.47
2022-10-10T22:46:08.697Z,2.40
2022-10-10T22:48:36.234Z,2.60
2022-10-10T22:51:06.500Z,3.10
2022-10-10T22:53:34.932Z,3.20
2022-10-10T22:56:02.491Z,3.07
2022-10-10T22:58:31.878Z,2.67
2022-10-10T23:01:07.003Z,2.60
2022-10-10T23:03:33.982Z,2.80
2022-10-10T23:06:01.902Z,2.37
2022-10-10T23:08:29.483Z,2.73
2022-10-10T23:10:56.689Z,2.67
2022-10-10T23:13:23.699Z,2.67
2022-10-10T23:15:50.568Z,2.67
2022-10-10T23:18:17.468Z,3.20
2022-10-10T23:20:48.072Z,3.10
2022-10-10T23:23:16.639Z,3.20
2022-10-10T23:25:44.983Z,3.40
2022-10-10T23:28:12.657Z,3.77
2022-10-10T23:30:44.719Z,3.50
2022-10-10T23:33:12.037Z,3.37
2022-10-10T23:35:39.190Z,3.73
2022-10-10T23:38:06.484Z,3.77
2022-10-10T23:40:34.104Z,4.00
2022-10-10T23:43:01.059Z,3.70
2022-10-10T23:45:28.057Z,4.20
2022-10-10T23:47:54.991Z,3.90
2022-10-10T23:50:21.864Z,3.83
2022-10-10T23:52:48.784Z,4.10
2022-10-10T23:55:15.731Z,3.90
2022-10-10T23:57:42.621Z,3.80
